Terminal Aerodrome Forecast
Issued by NWS Jacksonville, FL

Home | Current Version | Previous Version | Text Only | Print | Product List | Glossary On
Versions: 1 2 3 4 5 6 7 8 9 10 11 12 13 14
584
FTUS42 KJAX 172343
TAFJAX
TAF
KJAX 172343Z 1800/1824 VRB03KT P6SM FEW040 SCT250
     FM180800 00000KT 4SM BR FEW010 SCT100
     FM181400 23005KT P6SM SCT035 SCT100=

USA.gov is the U.S. government's official web portal to all federal, state and local government web resources and services.